sensor_id;sensor_type;location;lat;lon;timestamp;P1;durP1;ratioP1;P2;durP2;ratioP2
52952;SDS011;38815;55.932;-3.232;2022-07-04T00:00:42;12.23;;;3.72;;
52952;SDS011;38815;55.932;-3.232;2022-07-04T00:03:07;12.98;;;3.22;;
52952;SDS011;38815;55.932;-3.232;2022-07-04T00:05:32;14.50;;;4.75;;
52952;SDS011;38815;55.932;-3.232;2022-07-04T00:07:58;16.35;;;5.53;;
52952;SDS011;38815;55.932;-3.232;2022-07-04T00:10:23;11.43;;;3.50;;
52952;SDS011;38815;55.932;-3.232;2022-07-04T00:12:49;12.35;;;3.63;;
52952;SDS011;38815;55.932;-3.232;2022-07-04T00:15:14;14.57;;;3.35;;
52952;SDS011;38815;55.932;-3.232;2022-07-04T00:17:40;14.80;;;4.93;;
52952;SDS011;38815;55.932;-3.232;2022-07-04T00:20:05;14.27;;;3.65;;
52952;SDS011;38815;55.932;-3.232;2022-07-04T00:22:31;15.18;;;3.58;;
52952;SDS011;38815;55.932;-3.232;2022-07-04T00:24:56;13.98;;;3.75;;
52952;SDS011;38815;55.932;-3.232;2022-07-04T00:27:22;13.18;;;3.38;;
52952;SDS011;38815;55.932;-3.232;2022-07-04T00:29:47;14.98;;;4.25;;
52952;SDS011;38815;55.932;-3.232;2022-07-04T00:32:12;12.00;;;3.53;;
52952;SDS011;38815;55.932;-3.232;2022-07-04T00:34:38;13.43;;;4.10;;
52952;SDS011;38815;55.932;-3.232;2022-07-04T00:37:03;14.00;;;5.40;;
52952;SDS011;38815;55.932;-3.232;2022-07-04T00:39:28;15.57;;;5.15;;
52952;SDS011;38815;55.932;-3.232;2022-07-04T00:41:54;10.88;;;3.60;;
52952;SDS011;38815;55.932;-3.232;2022-07-04T00:44:19;15.45;;;2.97;;
52952;SDS011;38815;55.932;-3.232;2022-07-04T00:46:47;16.52;;;4.40;;
52952;SDS011;38815;55.932;-3.232;2022-07-04T00:49:12;13.32;;;3.53;;
52952;SDS011;38815;55.932;-3.232;2022-07-04T00:51:38;14.05;;;2.95;;
52952;SDS011;38815;55.932;-3.232;2022-07-04T00:54:04;10.40;;;2.65;;
52952;SDS011;38815;55.932;-3.232;2022-07-04T00:56:29;12.85;;;3.90;;
52952;SDS011;38815;55.932;-3.232;2022-07-04T00:58:55;12.68;;;4.45;;
52952;SDS011;38815;55.932;-3.232;2022-07-04T01:01:20;18.10;;;5.20;;
52952;SDS011;38815;55.932;-3.232;2022-07-04T01:03:46;12.32;;;3.08;;
52952;SDS011;38815;55.932;-3.232;2022-07-04T01:06:11;13.60;;;4.90;;
52952;SDS011;38815;55.932;-3.232;2022-07-04T01:08:41;16.10;;;3.60;;
52952;SDS011;38815;55.932;-3.232;2022-07-04T01:11:08;16.63;;;4.43;;
52952;SDS011;38815;55.932;-3.232;2022-07-04T01:13:33;14.63;;;3.83;;
52952;SDS011;38815;55.932;-3.232;2022-07-04T01:15:59;13.55;;;3.35;;
52952;SDS011;38815;55.932;-3.232;2022-07-04T01:18:24;10.07;;;3.22;;
52952;SDS011;38815;55.932;-3.232;2022-07-04T01:20:49;11.35;;;3.05;;
52952;SDS011;38815;55.932;-3.232;2022-07-04T01:23:15;12.55;;;3.42;;
52952;SDS011;38815;55.932;-3.232;2022-07-04T01:25:41;11.18;;;2.92;;
52952;SDS011;38815;55.932;-3.232;2022-07-04T01:28:06;16.45;;;4.70;;
52952;SDS011;38815;55.932;-3.232;2022-07-04T01:30:32;11.32;;;3.08;;
52952;SDS011;38815;55.932;-3.232;2022-07-04T01:32:57;12.05;;;2.75;;
52952;SDS011;38815;55.932;-3.232;2022-07-04T01:35:23;14.13;;;4.03;;
52952;SDS011;38815;55.932;-3.232;2022-07-04T01:37:48;12.70;;;3.53;;
52952;SDS011;38815;55.932;-3.232;2022-07-04T01:40:14;17.08;;;3.88;;
52952;SDS011;38815;55.932;-3.232;2022-07-04T01:42:40;12.27;;;3.97;;
52952;SDS011;38815;55.932;-3.232;2022-07-04T01:45:05;13.90;;;4.43;;
52952;SDS011;38815;55.932;-3.232;2022-07-04T01:47:31;14.57;;;4.50;;
52952;SDS011;38815;55.932;-3.232;2022-07-04T01:49:56;16.02;;;3.38;;
52952;SDS011;38815;55.932;-3.232;2022-07-04T01:52:22;12.38;;;3.38;;
52952;SDS011;38815;55.932;-3.232;2022-07-04T01:54:47;16.80;;;4.85;;
52952;SDS011;38815;55.932;-3.232;2022-07-04T01:57:12;14.07;;;3.72;;
52952;SDS011;38815;55.932;-3.232;2022-07-04T01:59:38;12.23;;;3.95;;
52952;SDS011;38815;55.932;-3.232;2022-07-04T02:02:22;15.05;;;3.83;;
52952;SDS011;38815;55.932;-3.232;2022-07-04T02:04:48;13.93;;;4.00;;
52952;SDS011;38815;55.932;-3.232;2022-07-04T02:07:13;9.90;;;3.00;;
52952;SDS011;38815;55.932;-3.232;2022-07-04T02:09:38;12.98;;;2.88;;
52952;SDS011;38815;55.932;-3.232;2022-07-04T02:12:04;13.18;;;3.63;;
52952;SDS011;38815;55.932;-3.232;2022-07-04T02:14:48;14.82;;;3.95;;
52952;SDS011;38815;55.932;-3.232;2022-07-04T02:17:13;11.45;;;3.75;;
52952;SDS011;38815;55.932;-3.232;2022-07-04T02:19:38;12.23;;;4.38;;
52952;SDS011;38815;55.932;-3.232;2022-07-04T02:22:04;13.60;;;4.68;;
52952;SDS011;38815;55.932;-3.232;2022-07-04T02:24:29;13.98;;;4.18;;
52952;SDS011;38815;55.932;-3.232;2022-07-04T02:26:54;12.70;;;3.80;;
52952;SDS011;38815;55.932;-3.232;2022-07-04T02:29:20;11.55;;;3.20;;
52952;SDS011;38815;55.932;-3.232;2022-07-04T02:31:45;12.98;;;3.50;;
52952;SDS011;38815;55.932;-3.232;2022-07-04T02:34:10;13.50;;;5.15;;
52952;SDS011;38815;55.932;-3.232;2022-07-04T02:36:36;12.73;;;3.20;;
52952;SDS011;38815;55.932;-3.232;2022-07-04T02:39:01;12.93;;;2.90;;
52952;SDS011;38815;55.932;-3.232;2022-07-04T02:41:26;13.00;;;3.38;;
52952;SDS011;38815;55.932;-3.232;2022-07-04T02:43:52;14.85;;;3.78;;
52952;SDS011;38815;55.932;-3.232;2022-07-04T02:46:17;10.68;;;3.28;;
52952;SDS011;38815;55.932;-3.232;2022-07-04T02:48:42;10.55;;;3.40;;
52952;SDS011;38815;55.932;-3.232;2022-07-04T02:51:08;13.13;;;3.67;;
52952;SDS011;38815;55.932;-3.232;2022-07-04T02:53:33;14.27;;;4.38;;
52952;SDS011;38815;55.932;-3.232;2022-07-04T02:55:58;10.73;;;3.03;;
52952;SDS011;38815;55.932;-3.232;2022-07-04T02:58:24;11.35;;;3.08;;
52952;SDS011;38815;55.932;-3.232;2022-07-04T03:00:49;12.05;;;3.17;;
52952;SDS011;38815;55.932;-3.232;2022-07-04T03:03:14;10.15;;;2.47;;
52952;SDS011;38815;55.932;-3.232;2022-07-04T03:05:39;15.60;;;5.25;;
52952;SDS011;38815;55.932;-3.232;2022-07-04T03:08:04;15.75;;;4.45;;
52952;SDS011;38815;55.932;-3.232;2022-07-04T03:10:30;10.23;;;2.80;;
52952;SDS011;38815;55.932;-3.232;2022-07-04T03:12:55;11.50;;;2.85;;
52952;SDS011;38815;55.932;-3.232;2022-07-04T03:15:20;12.45;;;3.83;;
52952;SDS011;38815;55.932;-3.232;2022-07-04T03:17:46;12.48;;;2.92;;
52952;SDS011;38815;55.932;-3.232;2022-07-04T03:20:11;11.43;;;3.00;;
52952;SDS011;38815;55.932;-3.232;2022-07-04T03:22:36;8.77;;;2.13;;
52952;SDS011;38815;55.932;-3.232;2022-07-04T03:25:01;12.43;;;3.42;;
52952;SDS011;38815;55.932;-3.232;2022-07-04T03:27:27;12.75;;;3.13;;
52952;SDS011;38815;55.932;-3.232;2022-07-04T03:29:52;8.70;;;2.58;;
52952;SDS011;38815;55.932;-3.232;2022-07-04T03:32:17;8.10;;;2.50;;
52952;SDS011;38815;55.932;-3.232;2022-07-04T03:34:43;11.05;;;2.13;;
52952;SDS011;38815;55.932;-3.232;2022-07-04T03:37:08;10.35;;;2.65;;
52952;SDS011;38815;55.932;-3.232;2022-07-04T03:39:33;13.18;;;3.40;;
52952;SDS011;38815;55.932;-3.232;2022-07-04T03:41:58;10.00;;;2.97;;
52952;SDS011;38815;55.932;-3.232;2022-07-04T03:44:24;9.15;;;2.65;;
52952;SDS011;38815;55.932;-3.232;2022-07-04T03:46:49;6.90;;;2.00;;
52952;SDS011;38815;55.932;-3.232;2022-07-04T03:49:14;7.10;;;2.05;;
52952;SDS011;38815;55.932;-3.232;2022-07-04T03:51:39;9.45;;;2.13;;
52952;SDS011;38815;55.932;-3.232;2022-07-04T03:54:05;8.07;;;2.13;;
52952;SDS011;38815;55.932;-3.232;2022-07-04T03:56:30;8.07;;;2.17;;
52952;SDS011;38815;55.932;-3.232;2022-07-04T03:58:55;12.65;;;3.67;;
52952;SDS011;38815;55.932;-3.232;2022-07-04T04:01:21;7.97;;;2.28;;
52952;SDS011;38815;55.932;-3.232;2022-07-04T04:03:46;6.35;;;1.90;;
52952;SDS011;38815;55.932;-3.232;2022-07-04T04:06:30;8.97;;;2.23;;
52952;SDS011;38815;55.932;-3.232;2022-07-04T04:08:55;7.13;;;1.90;;
52952;SDS011;38815;55.932;-3.232;2022-07-04T04:11:21;9.18;;;2.58;;
52952;SDS011;38815;55.932;-3.232;2022-07-04T04:13:46;10.23;;;1.90;;
52952;SDS011;38815;55.932;-3.232;2022-07-04T04:16:11;8.23;;;2.20;;
52952;SDS011;38815;55.932;-3.232;2022-07-04T04:18:37;6.38;;;1.77;;
52952;SDS011;38815;55.932;-3.232;2022-07-04T04:21:02;6.93;;;1.98;;
52952;SDS011;38815;55.932;-3.232;2022-07-04T04:23:28;8.90;;;1.80;;
52952;SDS011;38815;55.932;-3.232;2022-07-04T04:25:53;7.22;;;1.67;;
52952;SDS011;38815;55.932;-3.232;2022-07-04T04:28:18;8.98;;;2.15;;
52952;SDS011;38815;55.932;-3.232;2022-07-04T04:30:44;7.50;;;1.95;;
52952;SDS011;38815;55.932;-3.232;2022-07-04T04:33:09;8.68;;;1.83;;
52952;SDS011;38815;55.932;-3.232;2022-07-04T04:35:34;9.38;;;2.55;;
52952;SDS011;38815;55.932;-3.232;2022-07-04T04:37:59;7.93;;;2.10;;
52952;SDS011;38815;55.932;-3.232;2022-07-04T04:40:25;8.77;;;2.45;;
52952;SDS011;38815;55.932;-3.232;2022-07-04T04:42:50;10.90;;;2.47;;
52952;SDS011;38815;55.932;-3.232;2022-07-04T04:45:15;7.10;;;1.63;;
52952;SDS011;38815;55.932;-3.232;2022-07-04T04:47:41;9.48;;;2.40;;
52952;SDS011;38815;55.932;-3.232;2022-07-04T04:50:07;8.38;;;2.13;;
52952;SDS011;38815;55.932;-3.232;2022-07-04T04:52:36;9.27;;;2.40;;
52952;SDS011;38815;55.932;-3.232;2022-07-04T04:55:02;5.63;;;1.60;;
52952;SDS011;38815;55.932;-3.232;2022-07-04T04:57:27;6.05;;;1.40;;
52952;SDS011;38815;55.932;-3.232;2022-07-04T04:59:52;9.45;;;1.63;;
52952;SDS011;38815;55.932;-3.232;2022-07-04T05:02:17;6.03;;;1.35;;
52952;SDS011;38815;55.932;-3.232;2022-07-04T05:04:43;6.97;;;1.63;;
52952;SDS011;38815;55.932;-3.232;2022-07-04T05:07:08;6.72;;;1.55;;
52952;SDS011;38815;55.932;-3.232;2022-07-04T05:09:33;8.98;;;2.05;;
52952;SDS011;38815;55.932;-3.232;2022-07-04T05:12:00;6.05;;;2.00;;
52952;SDS011;38815;55.932;-3.232;2022-07-04T05:14:25;6.63;;;1.25;;
52952;SDS011;38815;55.932;-3.232;2022-07-04T05:16:50;11.55;;;2.50;;
52952;SDS011;38815;55.932;-3.232;2022-07-04T05:19:16;5.82;;;1.45;;
52952;SDS011;38815;55.932;-3.232;2022-07-04T05:21:41;6.68;;;1.33;;
52952;SDS011;38815;55.932;-3.232;2022-07-04T05:24:06;10.00;;;1.75;;
52952;SDS011;38815;55.932;-3.232;2022-07-04T05:26:31;6.60;;;1.80;;
52952;SDS011;38815;55.932;-3.232;2022-07-04T05:28:57;8.32;;;1.63;;
52952;SDS011;38815;55.932;-3.232;2022-07-04T05:31:22;9.95;;;2.53;;
52952;SDS011;38815;55.932;-3.232;2022-07-04T05:33:49;9.45;;;2.10;;
52952;SDS011;38815;55.932;-3.232;2022-07-04T05:36:14;10.00;;;2.33;;
52952;SDS011;38815;55.932;-3.232;2022-07-04T05:38:40;9.52;;;2.15;;
52952;SDS011;38815;55.932;-3.232;2022-07-04T05:41:05;7.47;;;1.63;;
52952;SDS011;38815;55.932;-3.232;2022-07-04T05:43:30;7.15;;;1.88;;
52952;SDS011;38815;55.932;-3.232;2022-07-04T05:45:55;5.95;;;1.40;;
52952;SDS011;38815;55.932;-3.232;2022-07-04T05:48:21;6.22;;;1.63;;
52952;SDS011;38815;55.932;-3.232;2022-07-04T05:50:46;7.50;;;1.60;;
52952;SDS011;38815;55.932;-3.232;2022-07-04T05:53:11;11.10;;;2.20;;
52952;SDS011;38815;55.932;-3.232;2022-07-04T05:55:37;5.82;;;1.42;;
52952;SDS011;38815;55.932;-3.232;2022-07-04T05:58:02;9.02;;;2.22;;
52952;SDS011;38815;55.932;-3.232;2022-07-04T06:00:27;6.07;;;1.52;;
52952;SDS011;38815;55.932;-3.232;2022-07-04T06:02:53;4.35;;;1.30;;
52952;SDS011;38815;55.932;-3.232;2022-07-04T06:05:18;5.18;;;1.60;;
52952;SDS011;38815;55.932;-3.232;2022-07-04T06:07:43;6.80;;;1.85;;
52952;SDS011;38815;55.932;-3.232;2022-07-04T06:10:08;7.43;;;1.67;;
52952;SDS011;38815;55.932;-3.232;2022-07-04T06:12:34;7.72;;;1.63;;
52952;SDS011;38815;55.932;-3.232;2022-07-04T06:15:00;9.52;;;1.85;;
52952;SDS011;38815;55.932;-3.232;2022-07-04T06:17:25;7.88;;;1.77;;
52952;SDS011;38815;55.932;-3.232;2022-07-04T06:19:50;7.30;;;1.70;;
52952;SDS011;38815;55.932;-3.232;2022-07-04T06:22:16;6.03;;;1.20;;
52952;SDS011;38815;55.932;-3.232;2022-07-04T06:24:41;6.10;;;1.52;;
52952;SDS011;38815;55.932;-3.232;2022-07-04T06:27:06;7.75;;;1.95;;
52952;SDS011;38815;55.932;-3.232;2022-07-04T06:29:32;6.80;;;1.85;;
52952;SDS011;38815;55.932;-3.232;2022-07-04T06:31:57;7.70;;;1.70;;
52952;SDS011;38815;55.932;-3.232;2022-07-04T06:34:22;8.20;;;1.63;;
52952;SDS011;38815;55.932;-3.232;2022-07-04T06:37:06;7.22;;;1.70;;
52952;SDS011;38815;55.932;-3.232;2022-07-04T06:39:31;10.32;;;2.20;;
52952;SDS011;38815;55.932;-3.232;2022-07-04T06:41:57;7.40;;;1.45;;
52952;SDS011;38815;55.932;-3.232;2022-07-04T06:44:22;6.35;;;1.23;;
52952;SDS011;38815;55.932;-3.232;2022-07-04T06:46:48;9.73;;;2.33;;
52952;SDS011;38815;55.932;-3.232;2022-07-04T06:49:13;10.30;;;2.75;;
52952;SDS011;38815;55.932;-3.232;2022-07-04T06:51:38;8.93;;;2.15;;
52952;SDS011;38815;55.932;-3.232;2022-07-04T06:54:04;9.60;;;1.83;;
52952;SDS011;38815;55.932;-3.232;2022-07-04T06:56:29;9.00;;;2.17;;
52952;SDS011;38815;55.932;-3.232;2022-07-04T06:58:54;8.35;;;2.28;;
52952;SDS011;38815;55.932;-3.232;2022-07-04T07:01:20;4.18;;;1.40;;
52952;SDS011;38815;55.932;-3.232;2022-07-04T07:03:45;4.38;;;1.38;;
52952;SDS011;38815;55.932;-3.232;2022-07-04T07:06:10;8.20;;;1.80;;
52952;SDS011;38815;55.932;-3.232;2022-07-04T07:08:36;9.20;;;1.85;;
52952;SDS011;38815;55.932;-3.232;2022-07-04T07:11:01;4.75;;;1.30;;
52952;SDS011;38815;55.932;-3.232;2022-07-04T07:13:42;6.35;;;1.60;;
52952;SDS011;38815;55.932;-3.232;2022-07-04T07:16:08;4.28;;;1.20;;
52952;SDS011;38815;55.932;-3.232;2022-07-04T07:18:33;6.45;;;1.48;;
52952;SDS011;38815;55.932;-3.232;2022-07-04T07:20:58;7.95;;;1.60;;
52952;SDS011;38815;55.932;-3.232;2022-07-04T07:23:24;8.80;;;1.65;;
52952;SDS011;38815;55.932;-3.232;2022-07-04T07:25:49;6.95;;;1.58;;
52952;SDS011;38815;55.932;-3.232;2022-07-04T07:28:14;6.30;;;1.85;;
52952;SDS011;38815;55.932;-3.232;2022-07-04T07:30:39;6.65;;;1.50;;
52952;SDS011;38815;55.932;-3.232;2022-07-04T07:33:05;8.35;;;1.58;;
52952;SDS011;38815;55.932;-3.232;2022-07-04T07:35:30;6.90;;;1.73;;
52952;SDS011;38815;55.932;-3.232;2022-07-04T07:37:55;4.95;;;1.35;;
52952;SDS011;38815;55.932;-3.232;2022-07-04T07:40:21;5.63;;;1.17;;
52952;SDS011;38815;55.932;-3.232;2022-07-04T07:42:46;7.20;;;1.20;;
52952;SDS011;38815;55.932;-3.232;2022-07-04T07:45:12;6.45;;;1.17;;
52952;SDS011;38815;55.932;-3.232;2022-07-04T07:47:37;5.70;;;1.02;;
52952;SDS011;38815;55.932;-3.232;2022-07-04T07:50:02;2.38;;;0.73;;
52952;SDS011;38815;55.932;-3.232;2022-07-04T07:52:29;3.40;;;0.90;;
52952;SDS011;38815;55.932;-3.232;2022-07-04T07:54:54;8.05;;;1.90;;
52952;SDS011;38815;55.932;-3.232;2022-07-04T07:57:19;6.35;;;1.13;;
52952;SDS011;38815;55.932;-3.232;2022-07-04T07:59:44;7.43;;;1.15;;
52952;SDS011;38815;55.932;-3.232;2022-07-04T08:02:10;6.18;;;1.80;;
52952;SDS011;38815;55.932;-3.232;2022-07-04T08:04:35;4.47;;;0.90;;
52952;SDS011;38815;55.932;-3.232;2022-07-04T08:07:06;5.80;;;1.27;;
52952;SDS011;38815;55.932;-3.232;2022-07-04T08:09:31;4.78;;;1.42;;
52952;SDS011;38815;55.932;-3.232;2022-07-04T08:11:57;6.00;;;1.17;;
52952;SDS011;38815;55.932;-3.232;2022-07-04T08:14:22;6.60;;;1.20;;
52952;SDS011;38815;55.932;-3.232;2022-07-04T08:16:48;6.95;;;1.65;;
52952;SDS011;38815;55.932;-3.232;2022-07-04T08:19:14;2.10;;;0.88;;
52952;SDS011;38815;55.932;-3.232;2022-07-04T08:21:39;9.00;;;1.75;;
52952;SDS011;38815;55.932;-3.232;2022-07-04T08:24:04;5.07;;;1.17;;
52952;SDS011;38815;55.932;-3.232;2022-07-04T08:26:30;5.25;;;1.10;;
52952;SDS011;38815;55.932;-3.232;2022-07-04T08:28:55;6.15;;;1.77;;
52952;SDS011;38815;55.932;-3.232;2022-07-04T08:31:22;5.05;;;1.27;;
52952;SDS011;38815;55.932;-3.232;2022-07-04T08:33:48;7.00;;;1.75;;
52952;SDS011;38815;55.932;-3.232;2022-07-04T08:36:13;6.75;;;1.63;;
52952;SDS011;38815;55.932;-3.232;2022-07-04T08:38:38;7.47;;;1.75;;
52952;SDS011;38815;55.932;-3.232;2022-07-04T08:41:04;6.25;;;1.60;;
52952;SDS011;38815;55.932;-3.232;2022-07-04T08:43:30;8.82;;;1.55;;
52952;SDS011;38815;55.932;-3.232;2022-07-04T08:45:57;5.47;;;1.15;;
52952;SDS011;38815;55.932;-3.232;2022-07-04T08:48:24;5.07;;;1.05;;
52952;SDS011;38815;55.932;-3.232;2022-07-04T08:50:56;8.40;;;1.20;;
52952;SDS011;38815;55.932;-3.232;2022-07-04T08:53:26;7.85;;;1.50;;
52952;SDS011;38815;55.932;-3.232;2022-07-04T08:55:52;8.32;;;2.08;;
52952;SDS011;38815;55.932;-3.232;2022-07-04T08:58:36;8.18;;;1.38;;
52952;SDS011;38815;55.932;-3.232;2022-07-04T09:01:03;5.82;;;1.33;;
52952;SDS011;38815;55.932;-3.232;2022-07-04T09:03:29;4.43;;;1.00;;
52952;SDS011;38815;55.932;-3.232;2022-07-04T09:05:55;10.68;;;2.47;;
52952;SDS011;38815;55.932;-3.232;2022-07-04T09:08:21;8.68;;;1.42;;
52952;SDS011;38815;55.932;-3.232;2022-07-04T09:10:47;9.63;;;1.73;;
52952;SDS011;38815;55.932;-3.232;2022-07-04T09:13:12;8.50;;;1.67;;
52952;SDS011;38815;55.932;-3.232;2022-07-04T09:15:43;8.40;;;2.17;;
52952;SDS011;38815;55.932;-3.232;2022-07-04T09:18:31;7.72;;;1.75;;
52952;SDS011;38815;55.932;-3.232;2022-07-04T09:20:55;8.73;;;2.50;;
52952;SDS011;38815;55.932;-3.232;2022-07-04T09:23:21;7.47;;;2.42;;
52952;SDS011;38815;55.932;-3.232;2022-07-04T09:25:48;15.73;;;5.47;;
52952;SDS011;38815;55.932;-3.232;2022-07-04T09:28:25;10.90;;;2.90;;
52952;SDS011;38815;55.932;-3.232;2022-07-04T09:30:50;10.25;;;2.30;;
52952;SDS011;38815;55.932;-3.232;2022-07-04T09:33:16;7.93;;;1.92;;
52952;SDS011;38815;55.932;-3.232;2022-07-04T09:35:43;9.48;;;2.05;;
52952;SDS011;38815;55.932;-3.232;2022-07-04T09:38:09;11.88;;;3.17;;
52952;SDS011;38815;55.932;-3.232;2022-07-04T09:40:36;9.07;;;2.63;;
52952;SDS011;38815;55.932;-3.232;2022-07-04T09:43:21;13.45;;;3.42;;
52952;SDS011;38815;55.932;-3.232;2022-07-04T09:45:53;5.38;;;1.67;;
52952;SDS011;38815;55.932;-3.232;2022-07-04T09:48:18;12.70;;;4.80;;
52952;SDS011;38815;55.932;-3.232;2022-07-04T09:50:43;9.55;;;2.40;;
52952;SDS011;38815;55.932;-3.232;2022-07-04T09:53:10;9.43;;;2.25;;
52952;SDS011;38815;55.932;-3.232;2022-07-04T09:55:36;11.90;;;3.78;;
52952;SDS011;38815;55.932;-3.232;2022-07-04T09:58:05;8.43;;;1.80;;
52952;SDS011;38815;55.932;-3.232;2022-07-04T10:00:32;11.70;;;3.55;;
52952;SDS011;38815;55.932;-3.232;2022-07-04T10:03:15;5.30;;;1.38;;
52952;SDS011;38815;55.932;-3.232;2022-07-04T10:05:41;6.25;;;1.40;;
52952;SDS011;38815;55.932;-3.232;2022-07-04T10:08:06;9.48;;;2.72;;
52952;SDS011;38815;55.932;-3.232;2022-07-04T10:12:59;10.43;;;2.80;;
52952;SDS011;38815;55.932;-3.232;2022-07-04T10:15:25;7.75;;;2.40;;
52952;SDS011;38815;55.932;-3.232;2022-07-04T10:17:50;6.28;;;2.25;;
52952;SDS011;38815;55.932;-3.232;2022-07-04T10:20:16;7.15;;;2.03;;
52952;SDS011;38815;55.932;-3.232;2022-07-04T10:22:41;10.35;;;2.90;;
52952;SDS011;38815;55.932;-3.232;2022-07-04T10:25:07;7.90;;;2.08;;
52952;SDS011;38815;55.932;-3.232;2022-07-04T10:27:33;11.05;;;2.22;;
52952;SDS011;38815;55.932;-3.232;2022-07-04T10:29:58;7.88;;;1.98;;
52952;SDS011;38815;55.932;-3.232;2022-07-04T10:32:25;4.00;;;1.30;;
52952;SDS011;38815;55.932;-3.232;2022-07-04T10:34:50;10.77;;;2.42;;
52952;SDS011;38815;55.932;-3.232;2022-07-04T10:37:16;7.93;;;1.55;;
52952;SDS011;38815;55.932;-3.232;2022-07-04T10:39:42;6.70;;;1.63;;
52952;SDS011;38815;55.932;-3.232;2022-07-04T10:42:07;7.68;;;1.83;;
52952;SDS011;38815;55.932;-3.232;2022-07-04T10:44:32;5.60;;;1.52;;
52952;SDS011;38815;55.932;-3.232;2022-07-04T10:47:05;11.68;;;3.30;;
52952;SDS011;38815;55.932;-3.232;2022-07-04T10:49:31;8.93;;;2.60;;
52952;SDS011;38815;55.932;-3.232;2022-07-04T10:52:10;8.38;;;2.30;;
52952;SDS011;38815;55.932;-3.232;2022-07-04T10:54:36;9.05;;;2.55;;
52952;SDS011;38815;55.932;-3.232;2022-07-04T10:59:38;4.88;;;1.50;;
52952;SDS011;38815;55.932;-3.232;2022-07-04T11:04:45;7.63;;;1.50;;
52952;SDS011;38815;55.932;-3.232;2022-07-04T11:07:11;6.90;;;2.00;;
52952;SDS011;38815;55.932;-3.232;2022-07-04T11:09:37;7.25;;;1.95;;
52952;SDS011;38815;55.932;-3.232;2022-07-04T11:12:03;7.13;;;2.28;;
52952;SDS011;38815;55.932;-3.232;2022-07-04T11:16:59;7.20;;;1.70;;
52952;SDS011;38815;55.932;-3.232;2022-07-04T11:19:25;8.57;;;2.47;;
52952;SDS011;38815;55.932;-3.232;2022-07-04T11:21:53;7.38;;;2.17;;
52952;SDS011;38815;55.932;-3.232;2022-07-04T11:24:18;6.18;;;1.60;;
52952;SDS011;38815;55.932;-3.232;2022-07-04T11:26:44;7.68;;;1.95;;
52952;SDS011;38815;55.932;-3.232;2022-07-04T11:29:12;6.65;;;1.42;;
52952;SDS011;38815;55.932;-3.232;2022-07-04T11:31:38;6.35;;;1.55;;
52952;SDS011;38815;55.932;-3.232;2022-07-04T11:34:04;5.40;;;1.52;;
52952;SDS011;38815;55.932;-3.232;2022-07-04T11:36:29;4.82;;;1.42;;
52952;SDS011;38815;55.932;-3.232;2022-07-04T11:38:58;7.70;;;1.80;;
52952;SDS011;38815;55.932;-3.232;2022-07-04T11:41:46;5.22;;;1.42;;
52952;SDS011;38815;55.932;-3.232;2022-07-04T11:44:33;11.07;;;3.30;;
52952;SDS011;38815;55.932;-3.232;2022-07-04T11:50:26;5.45;;;1.55;;
52952;SDS011;38815;55.932;-3.232;2022-07-04T11:55:02;7.03;;;2.00;;
52952;SDS011;38815;55.932;-3.232;2022-07-04T11:57:28;12.30;;;3.50;;
52952;SDS011;38815;55.932;-3.232;2022-07-04T11:59:55;5.72;;;1.60;;
52952;SDS011;38815;55.932;-3.232;2022-07-04T12:02:21;10.65;;;3.08;;
52952;SDS011;38815;55.932;-3.232;2022-07-04T12:04:46;9.57;;;3.03;;
52952;SDS011;38815;55.932;-3.232;2022-07-04T12:07:13;11.85;;;3.90;;
52952;SDS011;38815;55.932;-3.232;2022-07-04T12:09:39;9.77;;;3.53;;
52952;SDS011;38815;55.932;-3.232;2022-07-04T12:12:04;6.93;;;1.95;;
52952;SDS011;38815;55.932;-3.232;2022-07-04T12:14:30;8.63;;;1.60;;
52952;SDS011;38815;55.932;-3.232;2022-07-04T12:17:08;10.70;;;3.47;;
52952;SDS011;38815;55.932;-3.232;2022-07-04T12:19:34;16.30;;;5.05;;
52952;SDS011;38815;55.932;-3.232;2022-07-04T12:21:59;13.93;;;3.97;;
52952;SDS011;38815;55.932;-3.232;2022-07-04T12:24:26;14.23;;;4.15;;
52952;SDS011;38815;55.932;-3.232;2022-07-04T12:26:51;16.05;;;4.88;;
52952;SDS011;38815;55.932;-3.232;2022-07-04T12:29:23;10.15;;;3.17;;
52952;SDS011;38815;55.932;-3.232;2022-07-04T12:31:51;10.93;;;2.97;;
52952;SDS011;38815;55.932;-3.232;2022-07-04T12:34:17;14.90;;;5.22;;
52952;SDS011;38815;55.932;-3.232;2022-07-04T12:36:49;13.85;;;3.17;;
52952;SDS011;38815;55.932;-3.232;2022-07-04T12:39:31;16.13;;;4.68;;
52952;SDS011;38815;55.932;-3.232;2022-07-04T12:42:06;11.02;;;3.88;;
52952;SDS011;38815;55.932;-3.232;2022-07-04T12:44:32;9.32;;;1.70;;
52952;SDS011;38815;55.932;-3.232;2022-07-04T12:46:58;8.23;;;2.47;;
52952;SDS011;38815;55.932;-3.232;2022-07-04T12:49:23;10.13;;;2.55;;
52952;SDS011;38815;55.932;-3.232;2022-07-04T12:51:48;8.85;;;2.22;;
52952;SDS011;38815;55.932;-3.232;2022-07-04T12:54:14;6.00;;;1.50;;
52952;SDS011;38815;55.932;-3.232;2022-07-04T12:56:43;5.90;;;1.55;;
52952;SDS011;38815;55.932;-3.232;2022-07-04T12:59:15;10.45;;;2.42;;
52952;SDS011;38815;55.932;-3.232;2022-07-04T13:01:41;12.43;;;3.97;;
52952;SDS011;38815;55.932;-3.232;2022-07-04T13:04:07;7.20;;;1.75;;
52952;SDS011;38815;55.932;-3.232;2022-07-04T13:06:33;12.23;;;3.38;;
52952;SDS011;38815;55.932;-3.232;2022-07-04T13:08:58;9.52;;;1.67;;
52952;SDS011;38815;55.932;-3.232;2022-07-04T13:11:24;12.75;;;2.78;;
52952;SDS011;38815;55.932;-3.232;2022-07-04T13:14:07;10.20;;;2.63;;
52952;SDS011;38815;55.932;-3.232;2022-07-04T13:16:33;5.30;;;1.50;;
52952;SDS011;38815;55.932;-3.232;2022-07-04T13:18:58;9.82;;;2.03;;
52952;SDS011;38815;55.932;-3.232;2022-07-04T13:21:24;5.30;;;1.55;;
52952;SDS011;38815;55.932;-3.232;2022-07-04T13:23:49;9.77;;;2.17;;
52952;SDS011;38815;55.932;-3.232;2022-07-04T13:26:15;5.70;;;1.60;;
52952;SDS011;38815;55.932;-3.232;2022-07-04T13:28:40;12.32;;;3.47;;
52952;SDS011;38815;55.932;-3.232;2022-07-04T13:31:06;9.55;;;2.47;;
52952;SDS011;38815;55.932;-3.232;2022-07-04T13:33:31;14.23;;;5.20;;
52952;SDS011;38815;55.932;-3.232;2022-07-04T13:35:56;4.75;;;1.48;;
52952;SDS011;38815;55.932;-3.232;2022-07-04T13:38:22;6.57;;;1.80;;
52952;SDS011;38815;55.932;-3.232;2022-07-04T13:40:47;9.88;;;2.45;;
52952;SDS011;38815;55.932;-3.232;2022-07-04T13:43:13;13.95;;;3.80;;
52952;SDS011;38815;55.932;-3.232;2022-07-04T13:45:38;9.13;;;2.83;;
52952;SDS011;38815;55.932;-3.232;2022-07-04T13:48:05;7.03;;;2.28;;
52952;SDS011;38815;55.932;-3.232;2022-07-04T13:50:31;9.55;;;2.67;;
52952;SDS011;38815;55.932;-3.232;2022-07-04T13:52:56;6.78;;;1.95;;
52952;SDS011;38815;55.932;-3.232;2022-07-04T13:55:21;9.27;;;2.28;;
52952;SDS011;38815;55.932;-3.232;2022-07-04T13:57:47;20.88;;;8.45;;
52952;SDS011;38815;55.932;-3.232;2022-07-04T14:00:12;10.25;;;3.13;;
52952;SDS011;38815;55.932;-3.232;2022-07-04T14:02:37;10.23;;;2.85;;
52952;SDS011;38815;55.932;-3.232;2022-07-04T14:05:03;13.07;;;4.22;;
52952;SDS011;38815;55.932;-3.232;2022-07-04T14:07:28;14.82;;;5.15;;
52952;SDS011;38815;55.932;-3.232;2022-07-04T14:09:53;13.55;;;5.22;;
52952;SDS011;38815;55.932;-3.232;2022-07-04T14:12:19;9.98;;;3.63;;
52952;SDS011;38815;55.932;-3.232;2022-07-04T14:14:45;6.88;;;2.08;;
52952;SDS011;38815;55.932;-3.232;2022-07-04T14:17:13;19.52;;;7.97;;
52952;SDS011;38815;55.932;-3.232;2022-07-04T14:19:39;29.42;;;13.27;;
52952;SDS011;38815;55.932;-3.232;2022-07-04T14:22:04;25.02;;;11.18;;
52952;SDS011;38815;55.932;-3.232;2022-07-04T14:24:29;22.35;;;8.27;;
52952;SDS011;38815;55.932;-3.232;2022-07-04T14:26:55;18.20;;;7.45;;
52952;SDS011;38815;55.932;-3.232;2022-07-04T14:29:20;16.70;;;7.00;;
52952;SDS011;38815;55.932;-3.232;2022-07-04T14:31:46;20.58;;;8.48;;
52952;SDS011;38815;55.932;-3.232;2022-07-04T14:34:11;13.07;;;4.85;;
52952;SDS011;38815;55.932;-3.232;2022-07-04T14:36:40;23.40;;;10.45;;
52952;SDS011;38815;55.932;-3.232;2022-07-04T14:39:06;23.75;;;8.15;;